Time;durP1;ratioP1;P1;durP2;ratioP2;P2;SDS_P1;SDS_P2;PMS_P1;PMS_P2;Temp;Humidity;BMP_temperature;BMP_pressure;BME280_temperature;BME280_humidity;BME280_pressure;Samples;Min_cycle;Max_cycle;Signal;HPM_P1;HPM_P2
2024/01/21 07:50:21;;;;;;;;;;;;;;;;;;5502270;23;19929;-91
2024/01/21 07:52:46;;;;;;;;;;;;;;;;;;4936858;29;20013;-93
2024/01/21 07:55:11;;;;;;;;;;;;;;;;;;4936976;29;19917;-95
2024/01/21 07:57:37;;;;;;;;;;;;;;;;;;4938506;29;19915;-96
2024/01/21 08:00:03;;;;;;;;;;;;;;;;;;4939024;29;19914;-94
2024/01/21 08:02:29;;;;;;;;;;;;;;;;;;4936659;29;19911;-93
2024/01/21 08:04:55;;;;;;;;;;;;;;;;;;4938771;29;19915;-94
2024/01/21 09:36:37;;;;;;;;;;;;;;;;;;4953544;28;19919;-89
2024/01/21 09:39:02;;;;;;;;;;;;;;;;;;4940070;29;20488;-89
2024/01/21 09:41:31;;;;;;;;;;;;;;;;;;4939019;29;19968;-90
2024/01/21 09:43:56;;;;;;;;;;;;;;;;;;4941268;29;19914;-93
2024/01/21 09:46:22;;;;;;;;;;;;;;;;;;4937283;29;19965;-83
2024/01/21 09:48:50;;;;;;;;;;;;;;;;;;4938953;29;19915;-84
2024/01/21 09:51:20;;;;;;;;;;;;;;;;;;4942625;29;19926;-88
2024/01/21 09:53:46;;;;;;;;;;;;;;;;;;4941950;29;19931;-92
2024/01/21 09:56:11;;;;;;;;;;;;;;;;;;4938878;29;20309;-88
2024/01/21 09:58:48;;;;;;;;;;;;;;;;;;4937941;29;20370;-87
2024/01/21 10:01:14;;;;;;;;;;;;;;;;;;4938545;29;20005;-87
2024/01/21 10:03:39;;;;;;;;;;;;;;;;;;4937600;29;19918;-89
2024/01/21 10:06:05;;;;;;;;;;;;;;;;;;4937896;29;20009;-96
2024/01/21 10:08:31;;;;;;;;;;;;;;;;;;4940012;29;19922;-88
2024/01/21 10:10:58;;;;;;;;;;;;;;;;;;4937318;29;19937;-90
2024/01/21 10:13:23;;;;;;;;;;;;;;;;;;4937796;29;19938;-91
2024/01/21 10:15:49;;;;;;;;;;;;;;;;;;4937531;29;19914;-89
2024/01/21 10:18:15;;;;;;;;;;;;;;;;;;4937273;29;19915;-89
2024/01/21 10:20:41;;;;;;;;;;;;;;;;;;4937742;29;20321;-89
2024/01/21 10:23:11;;;;;;;;;;;;;;;;;;4937892;29;19954;-90
2024/01/21 10:25:39;;;;;;;;;;;;;;;;;;4939821;29;19915;-90
2024/01/21 10:28:05;;;;;;;;;;;;;;;;;;4937014;29;20001;-89
2024/01/21 10:30:30;;;;;;;;;;;;;;;;;;4936867;29;19997;-94
2024/01/21 10:32:56;;;;;;;;;;;;;;;;;;4938661;29;20350;-95
2024/01/21 10:35:21;;;;;;;;;;;;;;;;;;4938621;29;20404;-90
2024/01/21 10:37:47;;;;;;;;;;;;;;;;;;4936753;29;19993;-89
2024/01/21 10:40:12;;;;;;;;;;;;;;;;;;4937160;29;19911;-89
2024/01/21 10:42:41;;;;;;;;;;;;;;;;;;4938065;29;19930;-92
2024/01/21 10:45:06;;;;;;;;;;;;;;;;;;4937378;29;20372;-88
2024/01/21 10:47:32;;;;;;;;;;;;;;;;;;4936407;29;19914;-88
2024/01/21 10:49:58;;;;;;;;;;;;;;;;;;4938406;29;19915;-89
2024/01/21 10:52:23;;;;;;;;;;;;;;;;;;4937829;29;19911;-88
2024/01/21 13:48:18;;;;;;;;;;;;;;;;;;4950569;28;20009;-90
2024/01/21 13:50:46;;;;;;;;;;;;;;;;;;4940688;29;19925;-89
2024/01/21 13:53:13;;;;;;;;;;;;;;;;;;4924981;29;19926;-91
2024/01/21 13:55:39;;;;;;;;;;;;;;;;;;4938523;29;19921;-89
2024/01/21 13:58:04;;;;;;;;;;;;;;;;;;4939039;29;19914;-88
2024/01/21 14:00:30;;;;;;;;;;;;;;;;;;4942088;29;19915;-89
2024/01/21 14:02:55;;;;;;;;;;;;;;;;;;4941541;29;20395;-91
2024/01/21 14:05:25;;;;;;;;;;;;;;;;;;4943607;29;19915;-89
2024/01/21 14:07:52;;;;;;;;;;;;;;;;;;4949396;29;20380;-89
2024/01/21 14:10:18;;;;;;;;;;;;;;;;;;4949770;29;19925;-90
2024/01/21 14:12:46;;;;;;;;;;;;;;;;;;4947252;29;19950;-90
2024/01/21 14:15:12;;;;;;;;;;;;;;;;;;4945245;29;20010;-90
2024/01/21 14:17:40;;;;;;;;;;;;;;;;;;4948424;29;19919;-89
2024/01/21 14:20:09;;;;;;;;;;;;;;;;;;4943643;29;19993;-89
2024/01/21 14:22:35;;;;;;;;;;;;;;;;;;4942843;29;19915;-90
2024/01/21 14:25:04;;;;;;;;;;;;;;;;;;4943290;29;19914;-91
2024/01/21 14:27:37;;;;;;;;;;;;;;;;;;4951153;29;19914;-92
2024/01/21 14:30:02;;;;;;;;;;;;;;;;;;4943193;29;20001;-93
2024/01/21 14:32:28;;;;;;;;;;;;;;;;;;4949683;29;20365;-94
2024/01/21 14:34:58;;;;;;;;;;;;;;;;;;4954373;29;19918;-93
2024/01/21 14:37:23;;;;;;;;;;;;;;;;;;4944092;29;19911;-92
2024/01/21 14:39:51;;;;;;;;;;;;;;;;;;4943209;29;19915;-94
2024/01/21 14:42:16;;;;;;;;;;;;;;;;;;4952516;29;19921;-93
2024/01/21 14:44:54;;;;;;;;;;;;;;;;;;4954614;29;19950;-94
2024/01/21 14:47:20;;;;;;;;;;;;;;;;;;4955196;29;19915;-93
2024/01/21 14:49:55;;;;;;;;;;;;;;;;;;4935008;29;19981;-94
2024/01/21 14:52:20;;;;;;;;;;;;;;;;;;4951261;29;19919;-96
2024/01/21 14:54:46;;;;;;;;;;;;;;;;;;4933988;29;19915;-94
2024/01/21 14:57:11;;;;;;;;;;;;;;;;;;4940034;29;19925;-93
2024/01/21 14:59:37;;;;;;;;;;;;;;;;;;4926074;29;19915;-94
2024/01/21 15:02:02;;;;;;;;;;;;;;;;;;4938681;29;19915;-94
2024/01/21 15:04:29;;;;;;;;;;;;;;;;;;4937629;29;19919;-95
2024/01/21 15:07:00;;;;;;;;;;;;;;;;;;4938631;29;20366;-95
2024/01/21 15:09:26;;;;;;;;;;;;;;;;;;4936815;29;19915;-92
2024/01/21 15:11:51;;;;;;;;;;;;;;;;;;4932785;29;19970;-94
2024/01/21 15:14:24;;;;;;;;;;;;;;;;;;4938250;29;20341;-93
2024/01/21 15:16:50;;;;;;;;;;;;;;;;;;4920107;29;19966;-94
2024/01/21 15:19:15;;;;;;;;;;;;;;;;;;4932081;29;19922;-93
2024/01/21 15:21:41;;;;;;;;;;;;;;;;;;4938187;29;19922;-95
2024/01/21 15:24:07;;;;;;;;;;;;;;;;;;4937875;29;19918;-94
2024/01/21 15:26:32;;;;;;;;;;;;;;;;;;4937784;29;20048;-94
2024/01/21 15:31:33;;;;;;;;;;;;;;;;;;5183722;23;19946;-96
2024/01/21 15:33:59;;;;;;;;;;;;;;;;;;4947866;29;19903;-96
2024/01/21 15:39:03;;;;;;;;;;;;;;;;;;5011930;23;20429;-96
2024/01/21 15:41:35;;;;;;;;;;;;;;;;;;4952190;29;19943;-96
2024/01/21 18:05:17;;;;;;;;;;;;;;;;;;5250562;23;19923;-94
2024/01/21 18:07:44;;;;;;;;;;;;;;;;;;4896237;29;20286;-94
2024/01/21 18:10:09;;;;;;;;;;;;;;;;;;4895134;29;20319;-93
2024/01/21 18:12:35;;;;;;;;;;;;;;;;;;4909462;29;19920;-96
2024/01/21 18:15:00;;;;;;;;;;;;;;;;;;4887850;29;19916;-95
2024/01/21 18:17:28;;;;;;;;;;;;;;;;;;4893923;29;19923;-96
2024/01/21 18:19:57;;;;;;;;;;;;;;;;;;4893200;29;19915;-95
2024/01/21 18:22:23;;;;;;;;;;;;;;;;;;4889877;29;19915;-94
2024/01/21 18:24:52;;;;;;;;;;;;;;;;;;4889051;29;19927;-94
2024/01/21 18:27:17;;;;;;;;;;;;;;;;;;4890518;29;20009;-94
2024/01/21 18:29:43;;;;;;;;;;;;;;;;;;4892412;29;19957;-94
2024/01/21 18:32:13;;;;;;;;;;;;;;;;;;4893387;29;20009;-93
2024/01/21 18:34:40;;;;;;;;;;;;;;;;;;4895186;29;19919;-92
2024/01/21 18:37:06;;;;;;;;;;;;;;;;;;4890751;29;19911;-93
2024/01/21 18:39:33;;;;;;;;;;;;;;;;;;4880315;29;19926;-94
2024/01/21 18:42:06;;;;;;;;;;;;;;;;;;4897972;29;19919;-92
2024/01/21 18:44:36;;;;;;;;;;;;;;;;;;4898507;29;19971;-94
2024/01/21 18:47:08;;;;;;;;;;;;;;;;;;4950573;23;21421;-93
2024/01/21 18:49:37;;;;;;;;;;;;;;;;;;4959621;29;19930;-95
2024/01/21 18:52:05;;;;;;;;;;;;;;;;;;4959552;29;19941;-94
2024/01/21 18:54:42;;;;;;;;;;;;;;;;;;4940266;29;19950;-93
2024/01/21 18:57:10;;;;;;;;;;;;;;;;;;4936136;29;19911;-94
2024/01/21 18:59:41;;;;;;;;;;;;;;;;;;4925647;29;19919;-94
2024/01/21 19:02:23;;;;;;;;;;;;;;;;;;4999506;23;19907;-93
2024/01/21 19:04:56;;;;;;;;;;;;;;;;;;4961553;23;19913;-93
2024/01/21 19:07:30;;;;;;;;;;;;;;;;;;5017918;23;19907;-93
2024/01/21 19:10:00;;;;;;;;;;;;;;;;;;4975617;28;19918;-93
2024/01/21 19:12:26;;;;;;;;;;;;;;;;;;4949105;29;19950;-93
2024/01/21 19:14:51;;;;;;;;;;;;;;;;;;4942538;29;19946;-91
2024/01/21 19:17:17;;;;;;;;;;;;;;;;;;4939115;29;19922;-94
2024/01/21 19:19:42;;;;;;;;;;;;;;;;;;4935115;29;19919;-93
2024/01/21 19:22:11;;;;;;;;;;;;;;;;;;4944454;29;19918;-92
2024/01/21 19:24:37;;;;;;;;;;;;;;;;;;4929777;29;19921;-93
2024/01/21 19:27:07;;;;;;;;;;;;;;;;;;4948310;29;19946;-93
2024/01/21 19:29:34;;;;;;;;;;;;;;;;;;4947844;29;19915;-94
2024/01/21 19:31:59;;;;;;;;;;;;;;;;;;4938066;29;19922;-94
2024/01/21 19:34:24;;;;;;;;;;;;;;;;;;4921334;29;19915;-96
2024/01/21 19:36:50;;;;;;;;;;;;;;;;;;4920160;29;20358;-93
2024/01/21 19:39:15;;;;;;;;;;;;;;;;;;4921362;29;20009;-93
2024/01/21 19:41:43;;;;;;;;;;;;;;;;;;4935018;29;20032;-94
2024/01/21 19:44:08;;;;;;;;;;;;;;;;;;4938825;29;19914;-94
2024/01/21 19:46:33;;;;;;;;;;;;;;;;;;4924020;29;19986;-93
2024/01/21 19:49:00;;;;;;;;;;;;;;;;;;4921644;29;19915;-94
2024/01/21 19:51:25;;;;;;;;;;;;;;;;;;4920862;29;20387;-93
2024/01/21 19:53:51;;;;;;;;;;;;;;;;;;4927395;29;19962;-95
2024/01/21 19:56:18;;;;;;;;;;;;;;;;;;4924704;29;19982;-95
2024/01/21 19:58:43;;;;;;;;;;;;;;;;;;4922888;29;19992;-94
2024/01/21 20:01:12;;;;;;;;;;;;;;;;;;4932480;29;19926;-96
2024/01/21 20:03:37;;;;;;;;;;;;;;;;;;4925629;29;19914;-94
2024/01/21 20:06:02;;;;;;;;;;;;;;;;;;4919788;29;19987;-95
2024/01/21 20:08:28;;;;;;;;;;;;;;;;;;4892401;29;20318;-93
2024/01/21 20:10:53;;;;;;;;;;;;;;;;;;4902881;29;19919;-94
2024/01/21 20:13:19;;;;;;;;;;;;;;;;;;4915505;29;19942;-95
2024/01/21 20:15:44;;;;;;;;;;;;;;;;;;4915225;29;20349;-93
2024/01/21 20:18:09;;;;;;;;;;;;;;;;;;4919438;29;19915;-93
2024/01/21 20:20:35;;;;;;;;;;;;;;;;;;4909336;29;20369;-94
2024/01/21 20:23:00;;;;;;;;;;;;;;;;;;4923053;29;19915;-94
2024/01/21 20:25:26;;;;;;;;;;;;;;;;;;4898099;29;20297;-94
2024/01/21 20:27:55;;;;;;;;;;;;;;;;;;4899108;29;19919;-94
2024/01/21 20:30:20;;;;;;;;;;;;;;;;;;4903740;29;19971;-94
2024/01/21 20:32:46;;;;;;;;;;;;;;;;;;4905394;29;19915;-94
2024/01/21 20:35:12;;;;;;;;;;;;;;;;;;4906071;29;19915;-93
2024/01/21 20:37:38;;;;;;;;;;;;;;;;;;4894355;29;19923;-95
2024/01/21 20:40:04;;;;;;;;;;;;;;;;;;4905748;29;19918;-94
2024/01/21 20:42:30;;;;;;;;;;;;;;;;;;4916563;29;19915;-94
2024/01/21 20:44:57;;;;;;;;;;;;;;;;;;4904335;29;20285;-94
2024/01/21 20:47:23;;;;;;;;;;;;;;;;;;4921854;29;19915;-93
2024/01/21 20:49:48;;;;;;;;;;;;;;;;;;4908894;29;19934;-95
2024/01/21 20:52:15;;;;;;;;;;;;;;;;;;4894829;29;19971;-95
2024/01/21 20:54:41;;;;;;;;;;;;;;;;;;4911508;29;19915;-95
2024/01/21 20:57:10;;;;;;;;;;;;;;;;;;4902985;29;19921;-96
2024/01/21 20:59:35;;;;;;;;;;;;;;;;;;4902949;29;19915;-95
2024/01/21 21:02:01;;;;;;;;;;;;;;;;;;4902998;29;19922;-94
2024/01/21 21:04:28;;;;;;;;;;;;;;;;;;4903870;29;20493;-95
2024/01/21 21:06:54;;;;;;;;;;;;;;;;;;4916592;29;20009;-93
2024/01/21 21:09:19;;;;;;;;;;;;;;;;;;4940123;29;19953;-94
2024/01/21 21:11:45;;;;;;;;;;;;;;;;;;4940685;29;19924;-93
2024/01/21 21:14:10;;;;;;;;;;;;;;;;;;4953651;29;19914;-93
2024/01/21 21:16:35;;;;;;;;;;;;;;;;;;4950062;29;19914;-93
2024/01/21 21:19:02;;;;;;;;;;;;;;;;;;4960791;28;19921;-94
2024/01/21 21:21:27;;;;;;;;;;;;;;;;;;4959686;29;20001;-94
2024/01/21 21:23:52;;;;;;;;;;;;;;;;;;4946178;29;20482;-94
2024/01/21 21:26:18;;;;;;;;;;;;;;;;;;4945872;29;19914;-94
2024/01/21 21:28:43;;;;;;;;;;;;;;;;;;4959412;29;19918;-93
2024/01/21 21:31:09;;;;;;;;;;;;;;;;;;4959570;29;19928;-93
2024/01/21 21:33:34;;;;;;;;;;;;;;;;;;4958968;29;20013;-92
2024/01/21 21:36:00;;;;;;;;;;;;;;;;;;4945524;29;19921;-93
2024/01/21 21:38:25;;;;;;;;;;;;;;;;;;4952614;29;19922;-93
2024/01/21 21:40:56;;;;;;;;;;;;;;;;;;4952587;29;19919;-93
2024/01/21 21:43:22;;;;;;;;;;;;;;;;;;4940642;29;19953;-95
2024/01/21 21:45:47;;;;;;;;;;;;;;;;;;4941032;29;19922;-94
2024/01/21 21:48:13;;;;;;;;;;;;;;;;;;4940192;29;19979;-95
2024/01/21 21:50:38;;;;;;;;;;;;;;;;;;4944330;29;19925;-93
2024/01/21 21:53:05;;;;;;;;;;;;;;;;;;4952567;29;19988;-94
2024/01/21 21:55:31;;;;;;;;;;;;;;;;;;4934622;29;19915;-94
2024/01/21 21:57:56;;;;;;;;;;;;;;;;;;4947074;29;19915;-95
2024/01/21 22:00:24;;;;;;;;;;;;;;;;;;4944899;29;19954;-94
2024/01/21 22:02:52;;;;;;;;;;;;;;;;;;4953598;28;20374;-92
2024/01/21 22:05:17;;;;;;;;;;;;;;;;;;4928052;29;19922;-92
2024/01/21 22:07:43;;;;;;;;;;;;;;;;;;4941228;29;20086;-92
2024/01/21 22:10:08;;;;;;;;;;;;;;;;;;4939612;29;19921;-91
2024/01/21 22:12:34;;;;;;;;;;;;;;;;;;4933080;29;19994;-91
2024/01/21 22:14:59;;;;;;;;;;;;;;;;;;4928971;29;19974;-91
2024/01/21 22:17:25;;;;;;;;;;;;;;;;;;4936968;29;19922;-90
2024/01/21 22:19:51;;;;;;;;;;;;;;;;;;4954137;28;19922;-91
2024/01/21 22:22:19;;;;;;;;;;;;;;;;;;4966917;28;19919;-92
2024/01/21 22:24:45;;;;;;;;;;;;;;;;;;5018204;23;19970;-92
2024/01/21 22:27:11;;;;;;;;;;;;;;;;;;4952875;23;19922;-91
2024/01/21 22:29:36;;;;;;;;;;;;;;;;;;4941733;29;19918;-90
2024/01/21 22:32:02;;;;;;;;;;;;;;;;;;4919426;29;20366;-91
2024/01/21 22:34:27;;;;;;;;;;;;;;;;;;4910788;29;19925;-91
2024/01/21 22:36:53;;;;;;;;;;;;;;;;;;4911897;29;20050;-92
2024/01/21 22:39:18;;;;;;;;;;;;;;;;;;4905026;29;19962;-92
2024/01/21 22:41:43;;;;;;;;;;;;;;;;;;4905299;29;20289;-92
2024/01/21 22:44:09;;;;;;;;;;;;;;;;;;4905237;29;20370;-92
2024/01/21 22:46:34;;;;;;;;;;;;;;;;;;4904707;29;20031;-93
2024/01/21 22:49:00;;;;;;;;;;;;;;;;;;4905537;29;19954;-93
2024/01/21 22:51:25;;;;;;;;;;;;;;;;;;4910055;29;19921;-94
2024/01/21 22:53:50;;;;;;;;;;;;;;;;;;4913957;29;19915;-94
2024/01/21 22:56:16;;;;;;;;;;;;;;;;;;4908517;29;19921;-93
2024/01/21 22:58:41;;;;;;;;;;;;;;;;;;4906375;29;19922;-94
2024/01/21 23:01:07;;;;;;;;;;;;;;;;;;4917295;29;20390;-94
2024/01/21 23:03:34;;;;;;;;;;;;;;;;;;4903157;29;19926;-94
2024/01/21 23:06:00;;;;;;;;;;;;;;;;;;4902780;29;19915;-94
2024/01/21 23:08:25;;;;;;;;;;;;;;;;;;4903125;29;19922;-93
2024/01/21 23:10:51;;;;;;;;;;;;;;;;;;4921555;29;19920;-95
2024/01/21 23:13:17;;;;;;;;;;;;;;;;;;4921782;29;19914;-95
2024/01/21 23:15:42;;;;;;;;;;;;;;;;;;4913520;29;20354;-95
2024/01/21 23:18:08;;;;;;;;;;;;;;;;;;4908402;29;19919;-95
2024/01/21 23:23:03;;;;;;;;;;;;;;;;;;4978814;23;19938;-93
2024/01/21 23:25:28;;;;;;;;;;;;;;;;;;4950261;23;19923;-91
